Time;durP1;ratioP1;P1;durP2;ratioP2;P2;SDS_P1;SDS_P2;PMS_P1;PMS_P2;Temp;Humidity;BMP_temperature;BMP_pressure;BME280_temperature;BME280_humidity;BME280_pressure;Samples;Min_cycle;Max_cycle;Signal;HPM_P1;HPM_P2
2023/01/30 00:00:57;;;;;;;32.45;20.15;;;;;;;2.00;100.00;100825.44;5110637;28;20092;-69
2023/01/30 00:03:23;;;;;;;35.35;21.05;;;;;;;2.28;100.00;100830.16;5110711;28;20023;-69
2023/01/30 00:05:49;;;;;;;32.22;20.70;;;;;;;1.98;100.00;100764.41;5128667;28;20519;-69
2023/01/30 00:08:16;;;;;;;31.23;20.45;;;;;;;2.12;100.00;100763.00;5130727;28;20394;-69
2023/01/30 00:10:41;;;;;;;33.78;22.02;;;;;;;2.34;100.00;100845.31;5131417;27;20101;-69
2023/01/30 00:13:07;;;;;;;35.00;21.80;;;;;;;1.90;100.00;100789.34;5133322;27;20548;-70
2023/01/30 00:15:32;;;;;;;37.28;22.50;;;;;;;2.39;100.00;100847.13;5135094;27;20405;-69
2023/01/30 00:17:58;;;;;;;32.92;20.35;;;;;;;1.91;100.00;100758.44;5135140;27;20426;-69
2023/01/30 00:20:23;;;;;;;34.45;20.90;;;;;;;2.43;100.00;100845.53;5134357;27;20042;-70
2023/01/30 00:22:49;;;;;;;29.95;18.10;;;;;;;1.52;100.00;100763.50;5134402;27;20126;-69
2023/01/30 00:25:14;;;;;;;27.95;18.58;;;;;;;2.10;100.00;100837.34;5134333;27;20122;-70
2023/01/30 00:27:41;;;;;;;28.75;18.90;;;;;;;1.90;100.00;100816.91;5134813;27;20485;-69
2023/01/30 00:30:07;;;;;;;30.02;19.42;;;;;;;1.90;100.00;100821.91;5115636;27;20020;-69
2023/01/30 00:32:32;;;;;;;28.60;18.10;;;;;;;1.59;100.00;100755.28;5134876;27;20079;-69
2023/01/30 00:34:58;;;;;;;29.50;19.10;;;;;;;2.14;100.00;100839.13;5134291;27;20057;-69
2023/01/30 00:37:23;;;;;;;27.83;18.27;;;;;;;2.32;100.00;100857.84;5115965;27;20131;-69
2023/01/30 00:39:49;;;;;;;28.77;18.58;;;;;;;1.82;100.00;100774.94;5134483;27;20035;-69
2023/01/30 00:47:42;;;;;;;24.60;17.13;;;;;;;1.88;100.00;100818.53;5134639;27;20038;-69
2023/01/30 00:50:09;;;;;;;26.33;16.48;;;;;;;2.05;100.00;100839.75;5134654;27;20031;-69
2023/01/30 00:52:34;;;;;;;29.48;18.67;;;;;;;2.05;100.00;100823.88;5132692;27;20043;-69
2023/01/30 00:54:59;;;;;;;28.20;18.15;;;;;;;1.97;100.00;100807.81;5133927;27;20062;-69
2023/01/30 00:57:25;;;;;;;30.35;17.38;;;;;;;1.90;100.00;100816.91;5115843;27;20121;-69
2023/01/30 00:59:50;;;;;;;29.48;18.38;;;;;;;1.38;100.00;100726.44;5115799;27;20069;-69
2023/01/30 01:02:16;;;;;;;29.67;18.77;;;;;;;1.30;100.00;100725.44;5133432;27;20195;-69
2023/01/30 01:04:44;;;;;;;28.08;17.42;;;;;;;2.02;100.00;100814.63;5115506;27;20483;-69
2023/01/30 01:07:11;;;;;;;27.63;16.95;;;;;;;1.86;100.00;100812.66;5134102;27;20023;-69
2023/01/30 01:09:36;;;;;;;24.35;14.93;;;;;;;1.61;100.00;100797.91;5115840;27;20120;-69
2023/01/30 01:12:02;;;;;;;22.13;13.80;;;;;;;1.25;100.00;100757.06;5133531;27;20036;-69
2023/01/30 01:14:28;;;;;;;22.60;14.00;;;;;;;1.22;100.00;100727.78;5115264;27;20023;-70
2023/01/30 01:16:53;;;;;;;21.83;13.35;;;;;;;1.17;100.00;100734.34;5133974;27;20023;-69
2023/01/30 01:19:18;;;;;;;22.45;13.30;;;;;;;1.67;100.00;100808.06;5115121;27;20088;-69
2023/01/30 01:21:57;;;;;;;24.25;13.75;;;;;;;1.02;100.00;100713.97;5132383;27;20031;-69
2023/01/30 01:24:23;;;;;;;22.80;13.27;;;;;;;1.62;100.00;100795.41;5133327;27;20125;-69
2023/01/30 01:26:48;;;;;;;21.08;12.93;;;;;;;1.67;100.00;100813.91;5133866;27;20449;-69
2023/01/30 01:29:15;;;;;;;21.67;13.15;;;;;;;1.68;100.00;100797.22;5133418;27;20034;-69
2023/01/30 01:31:41;;;;;;;21.05;13.27;;;;;;;1.40;100.00;100739.84;5115053;27;20463;-69
2023/01/30 01:34:07;;;;;;;22.05;13.00;;;;;;;1.76;100.00;100793.22;5133323;27;20117;-68
2023/01/30 01:36:33;;;;;;;24.48;13.70;;;;;;;1.73;100.00;100798.16;5132439;27;20473;-69
2023/01/30 01:38:58;;;;;;;22.13;13.32;;;;;;;1.58;100.00;100816.25;5133732;27;20031;-69
2023/01/30 01:41:24;;;;;;;22.27;14.00;;;;;;;1.16;100.00;100700.13;5133194;27;20149;-68
2023/01/30 01:44:10;;;;;;;22.35;13.57;;;;;;;1.92;100.00;100806.91;5133157;27;20027;-69
2023/01/30 01:46:50;;;;;;;24.90;14.45;;;;;;;1.22;100.00;100681.88;5133215;27;20031;-70
2023/01/30 01:49:27;;;;;;;21.80;13.63;;;;;;;1.97;100.00;100797.81;5130030;27;20423;-69
2023/01/30 01:51:59;;;;;;;25.42;13.52;;;;;;;1.50;100.00;100714.19;5133073;27;20553;-68
2023/01/30 01:54:33;;;;;;;23.33;13.82;;;;;;;1.59;100.00;100714.34;5132896;27;20034;-69
2023/01/30 01:57:03;;;;;;;21.33;13.15;;;;;;;1.79;100.00;100753.19;5132941;27;20092;-69
2023/01/30 01:59:36;;;;;;;24.15;14.10;;;;;;;1.47;100.00;100746.66;5133324;27;20046;-70
2023/01/30 02:02:09;;;;;;;21.90;13.10;;;;;;;1.69;100.00;100768.84;5133178;27;20119;-69
2023/01/30 02:07:24;;;;;;;23.45;13.73;;;;;;;1.99;100.00;100781.97;5132902;27;20053;-69
2023/01/30 02:09:50;;;;;;;24.65;14.20;;;;;;;1.89;100.00;100782.63;5132930;27;20488;-69
2023/01/30 02:12:16;;;;;;;22.90;13.80;;;;;;;1.98;100.00;100775.25;5132312;27;20772;-69
2023/01/30 02:14:42;;;;;;;22.95;12.98;;;;;;;1.76;100.00;100718.03;5114041;27;20034;-69
2023/01/30 02:17:08;;;;;;;22.20;13.68;;;;;;;1.31;100.00;100667.03;5132761;27;20023;-71
2023/01/30 02:19:49;;;;;;;22.20;13.82;;;;;;;1.45;100.00;100679.00;5131713;27;20035;-69
2023/01/30 02:22:39;;;;;;;17.23;10.43;;;;;;;2.04;100.00;100770.38;5133090;27;20027;-69
2023/01/30 02:25:17;;;;;;;23.17;13.73;;;;;;;1.94;100.00;100787.72;5114214;27;20099;-69
2023/01/30 02:27:43;;;;;;;24.67;14.70;;;;;;;1.90;100.00;100779.31;5132218;27;20027;-69
2023/01/30 02:30:42;;;;;;;23.55;14.48;;;;;;;1.85;100.00;100767.47;5131223;27;20031;-72
2023/01/30 02:33:26;;;;;;;24.15;14.70;;;;;;;1.71;100.00;100730.47;5132349;27;20042;-69
2023/01/30 02:36:04;;;;;;;23.98;14.27;;;;;;;1.66;100.00;100754.56;5131985;27;20526;-69
2023/01/30 02:38:42;;;;;;;24.67;15.00;;;;;;;1.84;100.00;100760.78;5113886;27;20027;-68
2023/01/30 02:41:52;;;;;;;19.42;12.60;;;;;;;0.98;100.00;100593.75;5131542;27;20031;-69
2023/01/30 02:44:44;;;;;;;23.35;13.75;;;;;;;1.58;100.00;100716.03;5067855;28;20025;-69
2023/01/30 02:47:16;;;;;;;21.17;13.25;;;;;;;0.77;100.00;100574.97;5129944;27;20039;-69
2023/01/30 02:49:50;;;;;;;24.00;13.85;;;;;;;1.53;100.00;100690.03;5131954;27;20101;-69
2023/01/30 02:52:15;;;;;;;22.50;13.77;;;;;;;1.47;100.00;100667.38;5132484;27;20015;-70
2023/01/30 02:54:41;;;;;;;26.27;14.52;;;;;;;1.77;100.00;100748.13;5133408;27;20054;-70
2023/01/30 02:57:21;;;;;;;22.42;13.68;;;;;;;1.67;100.00;100698.66;5152518;27;20077;-69
2023/01/30 02:59:50;;;;;;;24.52;14.35;;;;;;;1.96;100.00;100766.03;5127967;27;20027;-70
2023/01/30 03:02:51;;;;;;;24.40;14.25;;;;;;;1.87;100.00;100755.81;5130622;27;20461;-69
2023/01/30 03:05:39;;;;;;;22.67;13.25;;;;;;;1.98;100.00;100759.41;5097132;28;20050;-69
2023/01/30 03:08:30;;;;;;;22.08;13.20;;;;;;;1.89;100.00;100750.03;5123032;27;20035;-69
2023/01/30 03:11:07;;;;;;;22.92;13.52;;;;;;;1.63;100.00;100733.63;5131142;28;20039;-68
2023/01/30 03:13:46;;;;;;;22.73;13.07;;;;;;;1.56;100.00;100749.38;5131895;28;20724;-69
2023/01/30 03:16:17;;;;;;;22.90;13.13;;;;;;;0.98;100.00;100654.66;5131723;28;20121;-70
2023/01/30 03:18:48;;;;;;;18.20;10.55;;;;;;;1.47;100.00;100752.53;5131859;28;20049;-69
2023/01/30 03:21:14;;;;;;;23.63;13.75;;;;;;;1.30;100.00;100715.44;5131714;28;20043;-71
2023/01/30 03:23:40;;;;;;;26.58;14.43;;;;;;;0.98;100.00;100669.69;5113303;28;20062;-69
2023/01/30 03:26:11;;;;;;;24.65;14.68;;;;;;;0.96;100.00;100632.91;5131990;28;20173;-69
2023/01/30 03:28:36;;;;;;;22.98;13.63;;;;;;;1.56;100.00;100745.22;5131486;28;20383;-69
2023/01/30 03:31:04;;;;;;;25.63;14.43;;;;;;;1.59;100.00;100726.88;5131511;28;20094;-70
2023/01/30 03:33:29;;;;;;;21.95;13.43;;;;;;;1.23;100.00;100658.53;5131741;28;20038;-69
2023/01/30 03:35:54;;;;;;;24.10;14.40;;;;;;;1.52;100.00;100753.47;5131948;28;20031;-69
2023/01/30 03:38:20;;;;;;;24.92;14.68;;;;;;;0.98;100.00;100662.19;5131372;28;20076;-69
2023/01/30 03:40:45;;;;;;;23.27;13.93;;;;;;;1.49;100.00;100752.53;5131353;27;20032;-69
2023/01/30 03:43:11;;;;;;;25.83;14.45;;;;;;;1.31;100.00;100737.97;5112775;28;20034;-69
2023/01/30 03:45:36;;;;;;;26.45;15.10;;;;;;;0.83;100.00;100652.66;5131433;27;20051;-70
2023/01/30 03:48:02;;;;;;;24.25;14.25;;;;;;;0.75;100.00;100654.16;5135280;27;20046;-69
2023/01/30 03:50:28;;;;;;;26.17;14.80;;;;;;;0.88;100.00;100665.28;5136065;27;20481;-69
2023/01/30 03:52:53;;;;;;;25.02;14.38;;;;;;;1.09;100.00;100695.78;5135842;27;20515;-69
2023/01/30 03:55:19;;;;;;;25.83;14.18;;;;;;;1.23;100.00;100733.66;5137810;27;20050;-69
2023/01/30 03:57:44;;;;;;;24.48;14.95;;;;;;;1.31;100.00;100725.47;5156578;27;20524;-69
2023/01/30 04:00:10;;;;;;;25.85;14.77;;;;;;;1.12;100.00;100730.03;5118798;27;20027;-69
2023/01/30 04:02:37;;;;;;;26.35;14.30;;;;;;;1.07;100.00;100717.41;5131696;27;20049;-69
2023/01/30 04:05:03;;;;;;;25.67;14.23;;;;;;;1.22;100.00;100661.84;5115111;27;20130;-70
2023/01/30 04:07:28;;;;;;;26.90;15.25;;;;;;;1.09;100.00;100675.75;5134954;27;20037;-70
2023/01/30 04:09:55;;;;;;;27.48;16.15;;;;;;;1.31;100.00;100739.63;5116520;27;20031;-71
2023/01/30 04:12:20;;;;;;;27.75;16.95;;;;;;;1.40;100.00;100727.31;5134979;27;20481;-70
2023/01/30 04:14:46;;;;;;;28.50;16.08;;;;;;;1.34;100.00;100709.66;5122868;27;20080;-73
2023/01/30 04:17:12;;;;;;;27.90;16.08;;;;;;;1.48;100.00;100709.16;5112928;27;20049;-72
2023/01/30 04:19:37;;;;;;;28.90;16.10;;;;;;;0.86;100.00;100641.88;5117257;27;20515;-72
2023/01/30 04:22:03;;;;;;;28.05;15.60;;;;;;;1.27;100.00;100725.38;5116942;27;20033;-71
2023/01/30 04:24:28;;;;;;;25.95;14.90;;;;;;;0.82;100.00;100657.66;5135189;27;20130;-72
2023/01/30 04:26:53;;;;;;;29.13;16.70;;;;;;;1.25;100.00;100724.50;5134883;27;20030;-72
2023/01/30 04:29:19;;;;;;;28.35;16.35;;;;;;;1.33;100.00;100711.31;5114252;27;20038;-72
2023/01/30 04:31:45;;;;;;;28.73;17.50;;;;;;;0.96;100.00;100650.44;5109163;27;20477;-75
2023/01/30 04:34:14;;;;;;;26.52;15.82;;;;;;;0.77;100.00;100641.72;5116397;27;20492;-72
2023/01/30 04:36:40;;;;;;;28.80;16.15;;;;;;;0.95;100.00;100666.28;5135299;27;20023;-73
2023/01/30 04:39:05;;;;;;;27.38;15.77;;;;;;;0.60;100.00;100588.81;5113533;27;20337;-71
2023/01/30 04:41:30;;;;;;;29.27;16.20;;;;;;;1.57;100.00;100728.50;5134016;27;20485;-71
2023/01/30 04:43:56;;;;;;;24.80;14.90;;;;;;;1.46;100.00;100712.44;5133660;27;20031;-71
2023/01/30 04:46:21;;;;;;;28.15;16.05;;;;;;;1.64;100.00;100737.84;5133697;27;20409;-69
2023/01/30 04:48:47;;;;;;;27.65;16.13;;;;;;;1.00;100.00;100652.19;5133572;27;20118;-74
2023/01/30 04:51:12;;;;;;;29.23;15.82;;;;;;;1.45;100.00;100750.78;5133580;27;20035;-71
2023/01/30 04:53:38;;;;;;;28.65;16.27;;;;;;;1.02;100.00;100661.44;5133525;27;20118;-71
2023/01/30 04:56:04;;;;;;;28.73;17.05;;;;;;;1.40;100.00;100724.81;5114762;27;20027;-71
2023/01/30 04:58:29;;;;;;;31.42;17.33;;;;;;;1.41;100.00;100744.03;5133184;27;20540;-71
2023/01/30 05:00:54;;;;;;;34.67;19.67;;;;;;;1.39;100.00;100740.63;5133104;27;20027;-72
2023/01/30 05:03:20;;;;;;;31.65;18.33;;;;;;;0.95;100.00;100654.63;5133823;27;20034;-69
2023/01/30 05:05:46;;;;;;;30.45;17.77;;;;;;;1.20;100.00;100716.88;5132049;27;20051;-70
2023/01/30 05:08:12;;;;;;;30.00;17.90;;;;;;;1.20;100.00;100724.41;5133671;27;20504;-70
2023/01/30 05:10:38;;;;;;;27.73;16.42;;;;;;;0.71;100.00;100629.06;5133323;27;20032;-71
2023/01/30 05:13:05;;;;;;;31.02;17.02;;;;;;;1.12;100.00;100733.41;5131872;27;20023;-73
2023/01/30 05:15:31;;;;;;;27.25;16.40;;;;;;;1.55;100.00;100746.00;5131993;27;20508;-72
2023/01/30 05:17:56;;;;;;;29.05;16.67;;;;;;;1.30;100.00;100718.78;5128406;27;20506;-69
2023/01/30 05:20:22;;;;;;;29.00;16.23;;;;;;;0.70;100.00;100643.22;5132619;27;20027;-69
2023/01/30 05:22:47;;;;;;;31.15;16.80;;;;;;;0.93;100.00;100655.38;5132194;27;20031;-68
2023/01/30 05:25:13;;;;;;;28.70;16.63;;;;;;;0.73;100.00;100637.44;5131738;27;20096;-69
2023/01/30 05:27:38;;;;;;;31.25;17.35;;;;;;;1.42;100.00;100734.06;5125582;27;20067;-69
2023/01/30 05:30:04;;;;;;;31.00;17.52;;;;;;;0.80;100.00;100619.25;5128721;27;20031;-68
2023/01/30 05:32:30;;;;;;;33.95;20.58;;;;;;;1.58;100.00;100735.22;5129904;27;20027;-70
2023/01/30 05:34:55;;;;;;;34.85;19.73;;;;;;;1.41;100.00;100724.84;5132254;27;20035;-69
2023/01/30 05:37:21;;;;;;;31.90;18.25;;;;;;;1.27;100.00;100731.22;5132480;27;20083;-69
2023/01/30 05:39:46;;;;;;;33.58;19.63;;;;;;;0.79;100.00;100633.41;5113644;27;20039;-69
2023/01/30 05:42:13;;;;;;;36.25;18.88;;;;;;;2.78;100.00;100688.84;5131830;27;20031;-67
2023/01/30 05:44:38;;;;;;;42.13;24.70;;;;;;;1.13;100.00;100654.97;5132140;27;20027;-71
2023/01/30 05:47:04;;;;;;;38.00;23.10;;;;;;;1.56;100.00;100734.34;5132414;27;20038;-70
2023/01/30 05:49:29;;;;;;;42.22;24.73;;;;;;;1.36;100.00;100700.53;5132088;27;20118;-70
2023/01/30 05:51:55;;;;;;;35.53;22.20;;;;;;;1.32;100.00;100723.81;5114659;27;20095;-70
2023/01/30 05:54:20;;;;;;;32.75;19.83;;;;;;;1.58;100.00;100756.13;5132254;27;20027;-70
2023/01/30 05:56:49;;;;;;;30.98;18.48;;;;;;;1.19;100.00;100671.81;5113223;27;20058;-71
2023/01/30 05:59:15;;;;;;;31.55;18.23;;;;;;;1.21;100.00;100662.66;5113400;27;20032;-71
2023/01/30 06:01:41;;;;;;;33.50;19.05;;;;;;;1.72;100.00;100741.34;5114496;27;20035;-72
2023/01/30 06:04:06;;;;;;;32.95;21.13;;;;;;;1.24;100.00;100655.19;5132632;27;20062;-70
2023/01/30 06:06:32;;;;;;;32.03;19.70;;;;;;;1.32;100.00;100653.69;5131671;27;20031;-71
2023/01/30 06:08:57;;;;;;;30.23;17.45;;;;;;;1.34;100.00;100692.13;5130648;27;20031;-71
2023/01/30 06:11:23;;;;;;;38.40;23.23;;;;;;;1.11;100.00;100651.59;5113020;27;20031;-69
2023/01/30 06:13:49;;;;;;;38.97;23.52;;;;;;;1.81;100.00;100740.66;5131736;27;20027;-72
2023/01/30 06:16:16;;;;;;;34.15;20.38;;;;;;;1.31;100.00;100667.88;5131980;27;20429;-70
2023/01/30 06:18:42;;;;;;;42.65;26.90;;;;;;;0.96;100.00;100645.44;5113932;27;20043;-72
2023/01/30 06:21:08;;;;;;;43.53;25.58;;;;;;;1.71;100.00;100757.19;5132178;27;20045;-69
2023/01/30 06:23:33;;;;;;;31.50;19.85;;;;;;;1.59;100.00;100746.91;5131717;27;20425;-70
2023/01/30 06:26:00;;;;;;;43.85;26.35;;;;;;;1.95;100.00;100754.31;5113413;27;20058;-69
2023/01/30 06:28:26;;;;;;;77.32;48.40;;;;;;;1.05;100.00;100621.44;5132208;27;20076;-72
2023/01/30 06:30:52;;;;;;;63.50;36.70;;;;;;;1.67;100.00;100722.88;5132076;27;20026;-72
2023/01/30 06:33:18;;;;;;;43.22;25.15;;;;;;;1.80;100.00;100759.88;5132609;27;20031;-72
2023/01/30 06:35:44;;;;;;;35.30;20.98;;;;;;;1.50;100.00;100661.56;5131617;27;20031;-72
2023/01/30 06:38:12;;;;;;;56.88;35.80;;;;;;;1.46;100.00;100647.31;5132343;27;20405;-70
2023/01/30 06:40:37;;;;;;;41.58;21.60;;;;;;;1.76;100.00;100740.59;5131686;27;20034;-69
2023/01/30 06:43:03;;;;;;;34.92;20.20;;;;;;;2.02;100.00;100743.59;5131389;27;20409;-71
2023/01/30 06:45:29;;;;;;;33.42;19.95;;;;;;;1.34;100.00;100662.94;5131177;27;20131;-70
2023/01/30 06:47:55;;;;;;;32.67;19.92;;;;;;;1.57;100.00;100686.78;5131936;27;20034;-71
2023/01/30 06:50:25;;;;;;;42.00;22.75;;;;;;;2.06;100.00;100737.81;5131903;27;20038;-72
2023/01/30 06:52:52;;;;;;;48.00;25.63;;;;;;;1.60;100.00;100646.75;5113395;27;20031;-72
2023/01/30 06:55:20;;;;;;;44.53;25.45;;;;;;;1.68;100.00;100670.28;5113264;27;20031;-72
2023/01/30 06:57:47;;;;;;;37.10;23.27;;;;;;;1.90;100.00;100750.88;5131524;27;20034;-72
2023/01/30 07:00:15;;;;;;;33.97;20.73;;;;;;;1.78;100.00;100706.38;5131384;27;20091;-72
2023/01/30 07:02:40;;;;;;;36.80;20.55;;;;;;;1.49;100.00;100665.72;5131485;27;20121;-72
2023/01/30 07:05:08;;;;;;;37.35;23.35;;;;;;;1.91;100.00;100709.94;5113392;28;20134;-72
2023/01/30 07:07:34;;;;;;;32.85;19.20;;;;;;;2.14;100.00;100741.31;5131118;27;20110;-72
2023/01/30 07:10:00;;;;;;;34.75;20.75;;;;;;;1.65;100.00;100645.16;5131083;28;20027;-70
2023/01/30 07:12:26;;;;;;;35.13;20.33;;;;;;;1.25;100.00;100579.28;5131241;28;20416;-70
2023/01/30 07:14:52;;;;;;;37.67;22.42;;;;;;;1.45;100.00;100626.41;5131374;28;20046;-71
2023/01/30 07:17:18;;;;;;;35.88;20.90;;;;;;;2.26;100.00;100719.78;5112632;28;20096;-72
2023/01/30 07:19:44;;;;;;;33.83;21.13;;;;;;;1.68;100.00;100670.28;5131050;28;20075;-71
2023/01/30 07:22:10;;;;;;;32.03;19.95;;;;;;;2.21;100.00;100738.09;5117196;27;20031;-72
2023/01/30 07:24:35;;;;;;;33.10;19.98;;;;;;;2.16;100.00;100719.63;5135168;27;20039;-72
2023/01/30 07:27:01;;;;;;;36.88;21.95;;;;;;;2.31;100.00;100655.53;5135205;27;20027;-72
2023/01/30 07:29:26;;;;;;;36.97;20.23;;;;;;;2.08;100.00;100711.13;5135350;27;20031;-73
2023/01/30 07:31:52;;;;;;;38.70;21.95;;;;;;;1.13;100.00;100556.53;5135207;27;20039;-71
2023/01/30 07:34:17;;;;;;;42.78;25.88;;;;;;;2.43;100.00;100713.41;5134834;27;20035;-70
2023/01/30 07:36:42;;;;;;;36.28;21.70;;;;;;;1.78;100.00;100676.31;5134610;27;20533;-70
2023/01/30 07:39:08;;;;;;;38.15;21.85;;;;;;;1.87;100.00;100713.22;5116155;27;20031;-71
2023/01/30 07:41:34;;;;;;;31.33;19.17;;;;;;;1.62;100.00;100641.78;5134568;27;20142;-71
2023/01/30 07:44:00;;;;;;;42.83;26.17;;;;;;;1.75;100.00;100636.16;5134534;27;20027;-72
2023/01/30 07:46:27;;;;;;;37.60;23.20;;;;;;;2.41;100.00;100721.72;5134839;27;20523;-71
2023/01/30 07:48:53;;;;;;;41.88;25.65;;;;;;;2.88;100.00;100730.00;5134757;27;20030;-70
2023/01/30 07:51:18;;;;;;;48.78;30.02;;;;;;;2.20;100.00;100643.63;5134693;27;20035;-70
2023/01/30 07:53:44;;;;;;;31.02;19.45;;;;;;;2.38;100.00;100721.66;5134446;27;20050;-70
2023/01/30 07:56:10;;;;;;;33.78;20.00;;;;;;;2.18;100.00;100715.47;5115663;27;20119;-71
2023/01/30 07:58:35;;;;;;;34.78;21.13;;;;;;;2.25;100.00;100704.72;5134582;27;20023;-71
2023/01/30 08:01:01;;;;;;;29.90;18.42;;;;;;;1.95;100.00;100656.56;5116117;27;20508;-71
2023/01/30 08:03:27;;;;;;;31.35;19.35;;;;;;;2.29;100.00;100697.28;5134630;27;20027;-70
2023/01/30 08:05:52;;;;;;;30.25;18.88;;;;;;;2.39;100.00;100713.31;5134165;27;20059;-71
2023/01/30 08:08:19;;;;;;;31.13;17.85;;;;;;;2.15;100.00;100625.16;5133843;27;20469;-71
2023/01/30 08:10:47;;;;;;;30.58;17.75;;;;;;;2.26;100.00;100714.78;5134014;27;20118;-71
2023/01/30 08:13:12;;;;;;;26.23;15.55;;;;;;;2.11;100.00;100706.16;5134106;27;20609;-70
2023/01/30 08:15:38;;;;;;;30.25;18.73;;;;;;;2.35;100.00;100706.56;5115543;27;20092;-71
2023/01/30 08:18:06;;;;;;;31.15;19.20;;;;;;;2.45;100.00;100706.75;5133557;27;20427;-71
2023/01/30 08:20:32;;;;;;;31.52;18.70;;;;;;;2.72;100.00;100708.00;5134356;27;20125;-71
2023/01/30 08:22:58;;;;;;;29.67;18.33;;;;;;;3.09;100.00;100695.97;5134221;27;20043;-71
2023/01/30 08:25:24;;;;;;;30.77;19.63;;;;;;;2.77;100.00;100702.25;5133462;27;20058;-71
2023/01/30 08:27:50;;;;;;;34.60;19.75;;;;;;;2.58;100.00;100670.13;5133625;27;20124;-70
2023/01/30 08:30:16;;;;;;;33.25;20.30;;;;;;;2.23;100.00;100609.41;5133533;27;20413;-72
2023/01/30 08:32:41;;;;;;;36.58;22.63;;;;;;;2.81;100.00;100696.44;5113993;27;20477;-71
2023/01/30 08:35:07;;;;;;;31.48;19.73;;;;;;;2.05;100.00;100600.75;5133670;27;20096;-70
2023/01/30 08:37:33;;;;;;;30.58;18.85;;;;;;;1.85;100.00;100607.09;5133243;27;20515;-71
2023/01/30 08:39:58;;;;;;;32.65;20.65;;;;;;;2.52;100.00;100600.66;5113559;27;20023;-70
2023/01/30 08:42:24;;;;;;;32.55;19.83;;;;;;;2.22;100.00;100601.88;5132927;27;20504;-70
2023/01/30 08:44:49;;;;;;;40.35;24.65;;;;;;;2.91;100.00;100694.91;5132936;27;20023;-69
2023/01/30 08:47:14;;;;;;;37.72;24.85;;;;;;;2.95;100.00;100717.53;5133435;27;20109;-71
2023/01/30 08:49:40;;;;;;;36.38;22.15;;;;;;;2.73;100.00;100646.94;5132981;27;20062;-71
2023/01/30 08:52:05;;;;;;;38.50;21.95;;;;;;;2.40;100.00;100597.09;5133553;27;20094;-71
2023/01/30 08:54:31;;;;;;;33.47;21.48;;;;;;;2.41;100.00;100592.13;5133308;27;20031;-70
2023/01/30 08:56:56;;;;;;;31.40;18.35;;;;;;;2.18;100.00;100595.13;5133121;27;20034;-71
2023/01/30 08:59:21;;;;;;;29.17;17.67;;;;;;;2.28;100.00;100605.28;5114374;27;20548;-71
2023/01/30 09:01:47;;;;;;;30.13;18.48;;;;;;;3.13;100.00;100691.88;5114641;27;20034;-71
2023/01/30 09:04:12;;;;;;;29.05;16.92;;;;;;;2.20;100.00;100599.31;5132944;27;20092;-71
2023/01/30 09:06:37;;;;;;;33.05;19.42;;;;;;;2.58;100.00;100608.25;5132314;27;20117;-71
2023/01/30 09:09:03;;;;;;;33.38;21.00;;;;;;;3.07;100.00;100674.22;5132656;27;20035;-71
2023/01/30 09:11:28;;;;;;;31.15;19.88;;;;;;;2.93;100.00;100603.69;5114494;27;20428;-71
2023/01/30 09:13:54;;;;;;;32.70;20.00;;;;;;;3.00;100.00;100633.09;5114845;27;20111;-71
2023/01/30 09:16:19;;;;;;;32.10;20.23;;;;;;;3.02;100.00;100648.19;5132385;27;20049;-71
2023/01/30 09:18:44;;;;;;;32.72;20.35;;;;;;;3.15;100.00;100643.31;5132900;27;20031;-71
2023/01/30 09:21:11;;;;;;;31.77;19.38;;;;;;;3.22;100.00;100641.75;5132847;27;20030;-71
2023/01/30 09:23:37;;;;;;;29.83;18.48;;;;;;;2.74;100.00;100576.69;5132496;27;20031;-70
2023/01/30 09:26:03;;;;;;;76.40;32.83;;;;;;;3.15;100.00;100623.22;5114514;27;20034;-71
2023/01/30 09:28:29;;;;;;;35.38;20.83;;;;;;;3.48;100.00;100637.88;5132980;27;20027;-70
2023/01/30 09:30:58;;;;;;;35.08;20.48;;;;;;;2.41;100.00;100556.16;5113905;27;20432;-71
2023/01/30 09:33:24;;;;;;;45.25;26.23;;;;;;;2.95;100.00;100548.50;5132541;27;20109;-71
2023/01/30 09:35:50;;;;;;;36.38;22.33;;;;;;;3.45;100.00;100635.31;5114202;27;20495;-70
2023/01/30 09:38:16;;;;;;;30.10;20.52;;;;;;;2.63;100.00;100548.09;5131915;27;20063;-70
2023/01/30 09:41:06;;;;;;;33.78;22.95;;;;;;;3.37;100.00;100632.72;5132354;27;20034;-71
2023/01/30 09:43:37;;;;;;;32.13;19.75;;;;;;;3.34;100.00;100627.66;5132117;27;20034;-71
2023/01/30 09:46:21;;;;;;;27.83;19.45;;;;;;;3.49;100.00;100622.81;5113437;27;20072;-71
2023/01/30 09:49:04;;;;;;;30.75;20.75;;;;;;;3.10;100.00;100593.88;5132284;27;20027;-70
2023/01/30 09:51:38;;;;;;;33.65;20.10;;;;;;;2.56;100.00;100531.28;5132536;27;20066;-70
2023/01/30 09:54:13;;;;;;;27.63;17.80;;;;;;;3.12;100.00;100600.59;5132036;27;20034;-71
2023/01/30 09:56:38;;;;;;;29.52;18.80;;;;;;;2.75;100.00;100512.28;5113691;27;20042;-72
2023/01/30 09:59:04;;;;;;;28.67;18.65;;;;;;;3.41;100.00;100594.22;5132190;27;20481;-72
2023/01/30 10:01:44;;;;;;;27.80;17.52;;;;;;;3.25;100.00;100601.56;5113695;27;20038;-70
2023/01/30 10:04:39;;;;;;;24.52;14.80;;;;;;;2.50;100.00;100496.06;5131925;27;20572;-71
2023/01/30 10:07:28;;;;;;;28.83;16.58;;;;;;;3.16;100.00;100571.34;5109689;27;20070;-71
2023/01/30 10:10:20;;;;;;;27.80;17.60;;;;;;;3.28;100.00;100569.81;5132474;27;20057;-71
2023/01/30 10:13:03;;;;;;;28.75;17.77;;;;;;;3.11;100.00;100537.81;5132434;27;20477;-71
2023/01/30 10:15:53;;;;;;;27.40;17.88;;;;;;;3.32;100.00;100566.50;5132012;27;20039;-70
2023/01/30 10:18:33;;;;;;;27.60;18.45;;;;;;;3.34;100.00;100561.50;5129899;27;20038;-70
2023/01/30 10:21:21;;;;;;;30.40;19.60;;;;;;;2.97;100.00;100499.97;5111598;28;20038;-70
2023/01/30 10:23:58;;;;;;;25.95;18.10;;;;;;;3.28;100.00;100557.25;4416059;27;10001004;-70
2023/01/30 10:26:27;;;;;;;27.67;18.50;;;;;;;3.10;100.00;100469.16;5108953;27;20482;-69
2023/01/30 10:29:11;;;;;;;27.17;17.20;;;;;;;3.39;100.00;100524.69;5108470;27;20547;-67
2023/01/30 10:31:48;;;;;;;23.65;15.80;;;;;;;3.27;100.00;100535.47;5126807;27;20062;-69
2023/01/30 10:34:36;;;;;;;30.65;18.63;;;;;;;4.11;100.00;100520.28;5117754;27;20047;-69
2023/01/30 10:37:08;;;;;;;28.83;18.13;;;;;;;3.26;100.00;100515.34;5122168;27;20036;-73
2023/01/30 10:40:17;;;;;;;29.00;18.35;;;;;;;3.32;100.00;100518.78;5102199;27;20046;-69
2023/01/30 10:43:04;;;;;;;35.58;20.60;;;;;;;2.89;100.00;100416.22;5094278;28;20587;-71
2023/01/30 10:45:45;;;;;;;28.52;18.75;;;;;;;5.37;100.00;100407.38;5095511;27;20099;-72
2023/01/30 10:48:32;;;;;;;25.05;16.08;;;;;;;3.42;100.00;100497.94;5129436;27;20056;-71
2023/01/30 10:51:02;;;;;;;29.25;18.92;;;;;;;3.64;100.00;100485.53;5111890;27;20088;-72
2023/01/30 10:53:41;;;;;;;40.60;24.65;;;;;;;3.31;100.00;100410.72;5128577;27;20062;-73
2023/01/30 10:56:47;;;;;;;35.35;24.15;;;;;;;3.51;100.00;100470.38;5130200;27;20099;-73
2023/01/30 10:59:22;;;;;;;27.98;20.63;;;;;;;3.56;100.00;100482.13;5131187;27;20031;-70
2023/01/30 11:02:24;;;;;;;22.75;16.35;;;;;;;3.61;100.00;100462.88;5131249;27;20112;-72
2023/01/30 11:05:12;;;;;;;23.30;16.15;;;;;;;3.49;100.00;100456.94;5078203;27;20050;-72
2023/01/30 11:07:41;;;;;;;23.77;15.75;;;;;;;3.43;100.00;100376.50;5131743;28;20047;-71
2023/01/30 11:10:25;;;;;;;21.60;14.48;;;;;;;3.08;100.00;100382.94;5131210;28;20088;-69
2023/01/30 11:13:15;;;;;;;24.05;17.25;;;;;;;4.07;100.00;100437.22;5131041;28;20073;-70
2023/01/30 11:15:43;;;;;;;21.77;13.93;;;;;;;3.01;100.00;100351.03;5109827;28;20028;-72
2023/01/30 11:18:09;;;;;;;22.38;15.60;;;;;;;3.64;100.00;100349.81;5130773;28;20039;-73
2023/01/30 11:20:40;;;;;;;29.23;17.42;;;;;;;2.71;100.00;100277.16;5130760;28;20027;-72
2023/01/30 11:23:22;;;;;;;24.00;17.35;;;;;;;3.61;100.00;100344.75;5131553;28;20023;-71
2023/01/30 11:25:56;;;;;;;20.90;15.00;;;;;;;3.70;100.00;100397.63;5112365;28;20050;-71
2023/01/30 11:28:26;;;;;;;22.13;16.73;;;;;;;4.24;100.00;100408.81;5131591;28;20027;-71